Terminal Aerodrome Forecast
Issued by NWS Wilmington, OH

Current Version | Previous Version | Graphics & Text | Print | Product List | Glossary On
Versions: 1 2 3 4 5 6 7 8 9 10 11 12 13 14 15 16 17 18 19 20 21 22 23 24 25 26 27
000
FTUS41 KILN 061100
TAFILN
TAF
KILN 061137Z 0612/0712 19007KT P6SM SCT250
     FM061700 20011KT P6SM SCT020
      TEMPO 0618/0622 BKN020
     FM062300 21012KT P6SM SCT100
     FM070900 22011KT P6SM BKN015 BKN100=

USA.gov is the U.S. government's official web portal to all federal, state and local government web resources and services.